Garden Spring, Nevada Weather observations

Data are for 10 minute period ending at time listed.
 Day   Time    Ave.   Ave.  Ave.  Vector   Max.   Stn.    Total    Solar   Ave.  
  of    of     Air    Rel.  Wind   Wind    Wind   Baro.  Precip.   Rad.    Soil  
Year   Day     Temp.  Hum.  Speed  Dir.    Gust   Pres.                    Temp. 
2016   (PST)    F      %     mph   deg.    mph     mb.     in.     W/m2     F    
--------------------------------------------------------------------------------- 
 205    5:00   72.6    24    4.7   277      6.3   854.1    0.00       7    85.9  
 205    6:00   79.0    21    2.8   279      5.1   854.5    0.00     129    86.0  
 205    7:00   87.8    16    2.9    74      8.2   854.8    0.00     325    85.9  
 205    8:00   89.1    17    5.6   164     13.3   855.0    0.00     524    85.0  
 205    9:00   91.0    15    5.5   159     12.8   854.9    0.00     706    85.1  
 205   10:00   93.5    13    5.3   150     11.5   854.7    0.00     857    86.3  
 205   11:00   95.6    11    6.4   164     15.1   854.3    0.00     956    88.4  
 205   12:00   97.2    10    5.9   206     16.0   853.8    0.00     997    90.5  
 205   13:00   98.5     9    6.5   216     20.3   853.3    0.00     989    92.9  
 205   14:00   99.4     9    6.7   189     18.0   852.8    0.00     914    95.5  
 205   15:00   99.8     8    6.4   213     20.2   852.1    0.00     797    97.4  
 205   16:00   99.2     8    6.8   226     16.3   851.4    0.00     629    98.3  
 205   17:00   99.0     8    5.7   219     13.2   850.9    0.00     430    98.3  
 205   18:00   97.1     9    5.1   209     13.0   850.8    0.00     219    97.6  
 205   19:00   92.8    10    4.9   208     11.6   850.9    0.00      36    96.4  
 205   20:00   89.4    12    5.4   211     10.0   851.3    0.00       0    95.3  
 205   21:00   88.3    16    5.4   210     12.3   851.8    0.00       0    94.3  
 205   22:00   85.9    20    3.7   204      9.8   852.0    0.00       0    93.1  
 205   23:00   81.4    24    3.1   273      6.0   852.2    0.00       0    91.9  
 206    0:00   77.0    28    4.2   274      6.5   852.4    0.00       0    90.9  
 206    1:00   76.3    29    4.5   279      7.6   852.4    0.00       0    90.0  
 206    2:00   75.4    29    3.7   272      6.1   852.2    0.00       0    89.0  
 206    3:00   75.2    25    4.0   289      7.3   852.2    0.00       0    88.1  
 206    4:00   74.6    26    3.8   265      6.5   852.3    0.00       0    87.1  

Return to Garden Spring, Nevada graphs page.


Western Regional Climate Center,wrcc@dri.edu